Time;durP1;ratioP1;P1;durP2;ratioP2;P2;SDS_P1;SDS_P2;PMS_P1;PMS_P2;Temp;Humidity;BMP_temperature;BMP_pressure;BME280_temperature;BME280_humidity;BME280_pressure;Samples;Min_cycle;Max_cycle;Signal;HPM_P1;HPM_P2
2022/07/13 00:00:58;;;;;;;1.25;1.15;;;;;;;18.72;86.08;101848.41;4990851;28;20165;-47
2022/07/13 00:03:23;;;;;;;1.00;1.00;;;;;;;18.76;85.87;101855.41;4990750;28;20169;-47
2022/07/13 00:05:48;;;;;;;1.00;1.00;;;;;;;18.69;85.46;101849.47;4990798;28;20249;-49
2022/07/13 00:08:14;;;;;;;1.40;1.30;;;;;;;18.54;86.23;101842.16;4990000;28;20220;-48
2022/07/13 00:10:40;;;;;;;1.20;1.10;;;;;;;18.57;86.80;101844.72;4990960;28;20264;-45
2022/07/13 00:13:05;;;;;;;1.30;1.20;;;;;;;18.60;86.84;101835.50;4990701;28;20170;-47
2022/07/13 00:15:30;;;;;;;1.13;1.13;;;;;;;18.63;86.68;101827.19;4990807;28;20232;-51
2022/07/13 00:17:56;;;;;;;1.30;1.23;;;;;;;18.62;86.66;101830.88;4990754;28;20178;-48
2022/07/13 00:20:22;;;;;;;1.05;1.05;;;;;;;18.65;86.90;101825.25;4990228;28;20256;-47
2022/07/13 00:22:47;;;;;;;2.53;1.08;;;;;;;18.65;86.57;101837.03;4990652;28;20177;-46
2022/07/13 00:25:13;;;;;;;1.55;1.20;;;;;;;18.68;86.62;101827.81;4990293;28;20443;-50
2022/07/13 00:27:38;;;;;;;1.25;1.08;;;;;;;18.72;86.97;101829.41;4990539;28;20426;-45
2022/07/13 00:30:04;;;;;;;1.40;1.15;;;;;;;18.65;87.04;101825.25;4990651;28;20597;-46
2022/07/13 00:32:30;;;;;;;1.10;1.10;;;;;;;18.69;87.30;101821.41;4990081;28;20192;-48
2022/07/13 00:34:55;;;;;;;1.20;1.20;;;;;;;18.68;87.00;101819.69;5005523;28;20169;-49
2022/07/13 00:37:21;;;;;;;0.98;0.98;;;;;;;18.69;87.09;101815.97;4990335;28;20174;-44
2022/07/13 00:39:46;;;;;;;2.05;1.13;;;;;;;18.71;87.16;101819.50;4972740;28;20606;-45
2022/07/13 00:42:12;;;;;;;2.10;1.20;;;;;;;18.77;87.25;101811.00;5005399;28;20173;-45
2022/07/13 00:44:37;;;;;;;0.90;0.90;;;;;;;18.66;86.64;101808.91;4989601;28;20170;-46
2022/07/13 00:47:04;;;;;;;0.95;0.95;;;;;;;18.57;87.79;101812.13;4972856;28;20169;-46
2022/07/13 00:49:30;;;;;;;0.82;0.82;;;;;;;18.68;87.73;101816.97;4990468;28;20578;-47
2022/07/13 00:51:56;;;;;;;0.80;0.80;;;;;;;18.69;87.76;101813.28;4973468;28;20355;-45
2022/07/13 00:54:29;;;;;;;5.18;1.10;;;;;;;18.57;87.65;101811.25;4975414;28;20179;-46
2022/07/13 00:56:55;;;;;;;1.05;1.05;;;;;;;18.50;88.46;101805.31;4994025;28;20178;-45
2022/07/13 00:59:22;;;;;;;1.17;1.08;;;;;;;18.59;88.33;101801.19;4993878;28;20642;-45
2022/07/13 01:01:47;;;;;;;0.98;0.98;;;;;;;18.64;88.46;101797.25;4976804;28;20240;-46
2022/07/13 01:04:13;;;;;;;1.05;1.05;;;;;;;18.61;88.22;101802.00;4975690;28;20189;-45
2022/07/13 01:06:38;;;;;;;1.42;0.88;;;;;;;18.53;88.70;101802.41;4993945;28;20208;-50
2022/07/13 01:09:05;;;;;;;1.63;1.25;;;;;;;18.43;88.72;101799.34;4993289;28;20527;-50
2022/07/13 01:11:32;;;;;;;1.10;1.10;;;;;;;18.44;88.87;101798.38;4975850;28;20185;-50
2022/07/13 01:13:58;;;;;;;1.20;1.10;;;;;;;18.46;88.96;101788.31;4993338;28;20656;-49
2022/07/13 01:16:24;;;;;;;1.67;0.93;;;;;;;18.41;89.33;101798.56;4993317;28;20174;-47
2022/07/13 01:18:50;;;;;;;0.98;0.95;;;;;;;18.48;89.52;101801.81;4993112;28;20197;-48
2022/07/13 01:21:18;;;;;;;1.00;1.00;;;;;;;18.59;89.02;101787.63;4975899;28;20192;-48
2022/07/13 01:23:44;;;;;;;0.90;0.90;;;;;;;18.49;88.89;101782.69;4992553;28;20640;-48
2022/07/13 01:26:13;;;;;;;0.88;0.88;;;;;;;18.56;89.16;101790.50;4975576;28;20174;-50
2022/07/13 01:28:38;;;;;;;1.10;1.10;;;;;;;18.42;89.98;101773.16;4992938;28;20599;-50
2022/07/13 01:31:05;;;;;;;1.73;1.08;;;;;;;18.41;90.93;101774.13;4975904;28;20181;-48
2022/07/13 01:33:32;;;;;;;1.70;1.52;;;;;;;18.41;90.83;101775.94;4974910;28;20260;-50
2022/07/13 01:35:58;;;;;;;1.70;1.30;;;;;;;18.45;91.51;101777.53;4975284;28;20241;-50
2022/07/13 01:38:27;;;;;;;1.50;1.40;;;;;;;18.45;91.70;101775.69;4975311;28;20213;-49
2022/07/13 01:40:52;;;;;;;1.80;1.70;;;;;;;18.41;91.09;101774.13;4992684;28;20613;-49
2022/07/13 01:43:23;;;;;;;1.70;1.60;;;;;;;18.42;91.15;101769.56;4989847;28;20244;-49
2022/07/13 01:45:49;;;;;;;1.85;1.58;;;;;;;18.37;91.40;101756.28;4982856;28;20212;-48
2022/07/13 01:48:14;;;;;;;1.42;1.30;;;;;;;18.43;91.45;101755.03;4992176;28;20260;-48
2022/07/13 01:50:40;;;;;;;1.48;1.38;;;;;;;18.38;91.73;101747.16;4975115;28;20228;-49
2022/07/13 01:53:05;;;;;;;1.23;1.10;;;;;;;18.43;91.75;101749.59;4992303;28;20525;-49
2022/07/13 01:55:32;;;;;;;1.40;1.30;;;;;;;18.41;91.38;101741.56;4975288;28;20204;-49
2022/07/13 01:57:59;;;;;;;1.40;1.30;;;;;;;18.35;91.78;101735.63;4992038;28;20311;-50
2022/07/13 02:00:25;;;;;;;1.10;1.10;;;;;;;18.39;91.35;101743.50;4975052;28;20225;-50
2022/07/13 02:02:51;;;;;;;1.20;1.20;;;;;;;18.35;91.46;101736.50;4974008;28;20202;-50
2022/07/13 02:05:26;;;;;;;1.55;1.40;;;;;;;18.37;91.18;101741.84;5007035;28;20195;-50
2022/07/13 02:07:51;;;;;;;1.67;1.40;;;;;;;18.29;91.28;101728.69;5007139;28;20645;-48
2022/07/13 02:10:17;;;;;;;1.50;1.40;;;;;;;18.34;91.38;101732.00;4973787;28;20172;-49
2022/07/13 02:12:43;;;;;;;1.40;1.30;;;;;;;18.29;91.35;101736.81;4974368;28;20557;-49
2022/07/13 02:15:10;;;;;;;2.72;1.30;;;;;;;18.21;91.38;101733.66;4974569;28;20281;-49
2022/07/13 02:17:37;;;;;;;1.70;1.60;;;;;;;18.21;91.43;101729.09;4991807;28;20161;-49
2022/07/13 02:20:08;;;;;;;2.47;1.65;;;;;;;18.16;91.99;101720.34;4974663;28;20209;-50
2022/07/13 02:22:41;;;;;;;2.35;1.50;;;;;;;18.12;91.88;101716.94;4990387;28;20180;-49
2022/07/13 02:25:07;;;;;;;1.85;1.35;;;;;;;18.23;92.30;101710.03;4991621;28;20712;-48
2022/07/13 02:27:33;;;;;;;1.83;1.67;;;;;;;18.23;91.97;101710.03;4974262;28;20212;-47
2022/07/13 02:29:58;;;;;;;1.70;1.60;;;;;;;18.24;91.77;101706.38;5006603;28;20225;-48
2022/07/13 02:32:24;;;;;;;1.30;1.20;;;;;;;18.30;91.18;101706.91;4992037;28;20209;-50
2022/07/13 02:34:49;;;;;;;1.60;1.50;;;;;;;18.22;91.66;101701.03;4957747;28;20166;-47
2022/07/13 02:37:15;;;;;;;2.08;1.85;;;;;;;18.19;91.99;101701.22;4991481;28;20690;-48
2022/07/13 02:39:40;;;;;;;1.75;1.65;;;;;;;18.21;92.37;101707.41;4991968;28;20201;-48
2022/07/13 02:42:06;;;;;;;2.08;1.88;;;;;;;18.20;92.18;101699.38;4974356;28;20295;-49
2022/07/13 02:44:31;;;;;;;4.25;2.15;;;;;;;18.22;92.42;101705.59;4991823;28;20657;-48
2022/07/13 02:46:57;;;;;;;3.15;2.20;;;;;;;18.22;92.33;101708.31;4974062;28;20224;-47
2022/07/13 02:49:22;;;;;;;2.15;1.70;;;;;;;18.24;91.92;101706.38;5006475;28;20221;-48
2022/07/13 02:51:49;;;;;;;1.88;1.73;;;;;;;18.18;92.22;101695.88;4991899;28;20463;-51
2022/07/13 02:54:16;;;;;;;2.20;1.73;;;;;;;18.10;92.87;101701.72;5005766;28;20189;-47
2022/07/13 02:56:41;;;;;;;1.85;1.75;;;;;;;18.12;92.96;101694.38;4991514;28;20173;-49
2022/07/13 02:59:07;;;;;;;2.00;1.80;;;;;;;18.19;92.65;101689.47;4973917;28;20209;-49
2022/07/13 03:01:34;;;;;;;2.47;2.00;;;;;;;18.14;92.74;101691.56;4973840;28;20593;-49
2022/07/13 03:03:59;;;;;;;1.88;1.77;;;;;;;18.17;92.63;101686.88;4990793;28;20201;-46
2022/07/13 03:06:25;;;;;;;2.33;2.03;;;;;;;18.12;92.84;101688.94;4973994;28;20446;-49
2022/07/13 03:08:51;;;;;;;2.38;1.77;;;;;;;18.11;92.45;101682.66;4990860;28;20208;-50
2022/07/13 03:11:17;;;;;;;2.63;1.85;;;;;;;18.13;92.79;101685.28;4973565;28;20170;-49
2022/07/13 03:13:43;;;;;;;2.13;1.60;;;;;;;18.26;92.24;101685.47;4972781;28;20188;-49
2022/07/13 03:16:08;;;;;;;2.70;1.70;;;;;;;18.23;91.90;101688.34;4973187;28;20564;-50
2022/07/13 03:18:34;;;;;;;2.58;1.80;;;;;;;18.22;92.11;101686.59;4972916;28;20704;-50
2022/07/13 03:21:00;;;;;;;3.10;2.10;;;;;;;18.28;92.06;101679.00;4991000;28;20173;-50
2022/07/13 03:23:25;;;;;;;2.05;1.70;;;;;;;18.24;91.78;101690.97;4972547;28;20217;-49
2022/07/13 03:25:51;;;;;;;2.03;1.92;;;;;;;18.26;91.92;101686.34;4973551;28;20169;-49
2022/07/13 03:28:16;;;;;;;2.08;1.75;;;;;;;18.20;92.08;101691.25;4990792;28;20209;-48
2022/07/13 03:30:42;;;;;;;1.85;1.75;;;;;;;18.25;91.90;101673.72;4973133;28;20182;-51
2022/07/13 03:33:07;;;;;;;1.98;1.77;;;;;;;18.15;92.23;101675.22;4972735;28;20197;-49
2022/07/13 03:35:33;;;;;;;3.75;1.95;;;;;;;18.22;92.50;101673.03;4990914;28;20633;-49
2022/07/13 03:37:59;;;;;;;2.33;2.00;;;;;;;18.15;92.79;101677.03;4972667;28;20193;-50
2022/07/13 03:40:28;;;;;;;1.75;1.65;;;;;;;18.11;93.14;101673.66;4972852;28;20205;-49
2022/07/13 03:42:55;;;;;;;2.60;1.90;;;;;;;18.15;93.04;101679.75;4956816;28;20181;-47
2022/07/13 03:45:20;;;;;;;2.30;1.90;;;;;;;18.15;92.96;101664.38;4965759;28;20252;-50
2022/07/13 03:47:46;;;;;;;2.20;2.05;;;;;;;18.18;93.08;101668.75;4956362;28;20215;-50
2022/07/13 03:50:12;;;;;;;2.05;1.85;;;;;;;18.19;93.08;101667.78;4972846;28;20256;-49
2022/07/13 03:52:38;;;;;;;3.30;2.10;;;;;;;18.21;93.18;101668.56;4987190;28;20213;-49
2022/07/13 03:55:04;;;;;;;4.15;2.50;;;;;;;18.18;93.25;101666.91;4972230;28;20276;-48
2022/07/13 03:57:31;;;;;;;2.28;2.10;;;;;;;18.21;93.63;101658.56;4972709;28;20182;-50
2022/07/13 03:59:57;;;;;;;3.80;2.20;;;;;;;18.20;93.18;101661.41;4972900;28;20688;-50
2022/07/13 04:02:24;;;;;;;2.30;2.08;;;;;;;18.23;93.83;101653.06;4972567;28;20232;-48
2022/07/13 04:04:51;;;;;;;4.53;2.10;;;;;;;18.30;93.89;101657.19;4989602;28;20173;-48
2022/07/13 04:07:18;;;;;;;2.33;2.08;;;;;;;18.23;93.29;101661.22;4972491;28;20188;-48
2022/07/13 04:09:44;;;;;;;4.82;2.22;;;;;;;18.36;93.48;101667.69;4972437;28;20197;-49
2022/07/13 04:12:10;;;;;;;4.03;1.80;;;;;;;18.37;93.10;101665.88;4973234;28;20592;-48
2022/07/13 04:14:37;;;;;;;4.03;2.00;;;;;;;18.24;93.48;101658.44;4972074;28;20181;-49
2022/07/13 04:17:02;;;;;;;2.78;2.10;;;;;;;18.30;93.61;101652.66;4973374;28;20181;-49
2022/07/13 04:19:28;;;;;;;2.85;2.17;;;;;;;18.24;93.79;101665.69;4956996;28;20201;-50
2022/07/13 04:21:53;;;;;;;4.28;2.45;;;;;;;18.28;93.84;101668.13;4972624;28;20575;-47
2022/07/13 04:24:19;;;;;;;2.42;2.10;;;;;;;18.29;93.51;101660.88;4972653;28;20542;-47
2022/07/13 04:26:46;;;;;;;4.78;2.88;;;;;;;18.31;93.61;101664.38;4973913;28;20169;-50
2022/07/13 04:29:11;;;;;;;3.72;2.40;;;;;;;18.31;93.60;101656.22;4960778;28;20606;-48
2022/07/13 04:31:38;;;;;;;2.97;2.45;;;;;;;18.33;93.47;101651.59;4976911;28;20177;-50
2022/07/13 04:34:04;;;;;;;2.55;2.35;;;;;;;18.36;93.51;101645.13;4976188;28;20700;-49
2022/07/13 04:36:29;;;;;;;2.40;2.30;;;;;;;18.36;93.63;101645.13;4976277;28;20272;-50
2022/07/13 04:38:57;;;;;;;3.88;2.63;;;;;;;18.40;93.43;101643.97;4976482;28;20268;-50
2022/07/13 04:41:22;;;;;;;2.35;2.15;;;;;;;18.45;93.13;101637.28;4976810;28;20632;-48
2022/07/13 04:43:50;;;;;;;3.22;2.47;;;;;;;18.47;93.25;101643.50;4976374;28;20173;-49
2022/07/13 04:46:17;;;;;;;4.07;2.67;;;;;;;18.52;92.85;101635.13;4993939;28;20257;-47
2022/07/13 04:48:43;;;;;;;3.40;2.47;;;;;;;18.56;92.78;101627.66;4976795;28;20240;-48
2022/07/13 04:51:10;;;;;;;4.18;2.60;;;;;;;18.55;92.32;101631.34;4976607;28;20417;-48
2022/07/13 04:53:37;;;;;;;2.95;2.53;;;;;;;18.56;92.51;101630.38;4993359;28;20169;-48
2022/07/13 04:56:03;;;;;;;3.17;2.80;;;;;;;18.52;92.48;101622.44;4976681;28;20240;-47
2022/07/13 04:58:29;;;;;;;2.35;2.25;;;;;;;18.55;92.26;101621.38;4976044;28;20194;-49
2022/07/13 05:00:54;;;;;;;2.42;2.22;;;;;;;18.55;92.54;101624.06;4976522;28;20553;-52
2022/07/13 05:03:20;;;;;;;4.93;2.40;;;;;;;18.53;92.55;101616.00;4975680;28;20583;-48
2022/07/13 05:05:46;;;;;;;1.88;1.77;;;;;;;18.70;93.03;101616.88;4975969;28;20205;-48
2022/07/13 05:08:11;;;;;;;4.53;2.22;;;;;;;18.78;92.43;101617.28;4976509;28;20209;-48
2022/07/13 05:10:37;;;;;;;2.60;2.40;;;;;;;18.78;91.99;101613.72;4976071;28;20173;-51
2022/07/13 05:13:03;;;;;;;3.83;2.70;;;;;;;18.76;91.59;101624.66;4975923;28;20559;-50
2022/07/13 05:15:28;;;;;;;3.17;2.88;;;;;;;18.74;92.08;101626.59;4976260;28;20260;-47
2022/07/13 05:17:54;;;;;;;3.30;2.10;;;;;;;18.84;91.46;101616.06;4975599;28;20256;-50
2022/07/13 05:20:21;;;;;;;3.28;2.75;;;;;;;18.85;91.27;101620.53;4976314;28;20673;-47
2022/07/13 05:22:52;;;;;;;3.40;2.92;;;;;;;18.84;91.22;101611.50;4975968;28;20594;-49
2022/07/13 05:25:22;;;;;;;3.17;2.58;;;;;;;18.83;91.18;101614.31;4975612;28;20283;-50
2022/07/13 05:27:47;;;;;;;3.17;2.97;;;;;;;18.78;91.53;101611.84;4993649;28;20170;-47
2022/07/13 05:30:13;;;;;;;6.22;3.20;;;;;;;18.81;91.47;101616.25;4959780;28;20193;-48
2022/07/13 05:32:40;;;;;;;3.70;2.92;;;;;;;18.87;91.83;101616.75;4975684;28;20181;-51
2022/07/13 05:35:06;;;;;;;6.63;3.00;;;;;;;18.80;91.44;101618.06;4958888;28;20466;-50
2022/07/13 05:37:34;;;;;;;3.45;3.15;;;;;;;18.85;91.44;101605.13;4975532;28;20562;-50
2022/07/13 05:39:59;;;;;;;4.78;2.75;;;;;;;18.90;91.10;101613.84;4993124;28;20229;-47
2022/07/13 05:42:28;;;;;;;3.10;2.80;;;;;;;18.88;91.35;101604.91;4975605;28;20181;-47
2022/07/13 05:44:54;;;;;;;5.82;3.30;;;;;;;18.88;91.27;101604.06;4975174;28;20256;-50
2022/07/13 05:47:20;;;;;;;3.53;2.47;;;;;;;19.03;91.07;101607.69;4975217;28;20808;-47
2022/07/13 05:49:45;;;;;;;3.33;3.05;;;;;;;19.01;91.00;101620.47;4975240;28;20200;-48
2022/07/13 05:52:12;;;;;;;3.95;2.95;;;;;;;19.07;91.46;101614.69;4975550;28;20574;-50
2022/07/13 05:54:38;;;;;;;3.60;3.30;;;;;;;19.01;90.89;101626.78;4974715;28;20183;-48
2022/07/13 05:57:04;;;;;;;4.45;2.80;;;;;;;19.04;90.51;101628.41;4992864;28;20170;-49
2022/07/13 05:59:29;;;;;;;3.97;3.58;;;;;;;19.03;91.18;101613.97;4992838;28;20215;-49
2022/07/13 06:01:55;;;;;;;3.92;3.53;;;;;;;19.05;90.70;101614.75;4992441;28;20229;-51
2022/07/13 06:04:20;;;;;;;5.55;3.00;;;;;;;19.08;90.92;101611.84;4992257;28;20217;-49
2022/07/13 06:06:46;;;;;;;3.92;2.95;;;;;;;19.11;90.88;101611.66;4992706;28;20221;-48
2022/07/13 06:09:12;;;;;;;3.50;2.92;;;;;;;19.20;90.84;101609.31;4990974;28;20265;-47
2022/07/13 06:11:39;;;;;;;4.93;3.80;;;;;;;19.10;91.71;101618.06;4991725;28;20190;-48
2022/07/13 06:14:06;;;;;;;4.63;3.90;;;;;;;19.14;91.35;101605.16;4992205;28;20165;-49
2022/07/13 06:16:31;;;;;;;4.95;3.60;;;;;;;19.19;92.30;101600.31;4992521;28;20170;-49
2022/07/13 06:18:57;;;;;;;6.05;4.07;;;;;;;19.28;91.29;101588.88;4974721;28;20256;-47
2022/07/13 06:21:22;;;;;;;4.25;3.85;;;;;;;19.48;90.68;101578.59;4992976;28;20187;-47
2022/07/13 06:23:47;;;;;;;4.35;3.80;;;;;;;19.75;88.82;101585.00;4991782;28;20268;-49
2022/07/13 06:26:13;;;;;;;5.03;4.40;;;;;;;20.34;87.72;101587.47;4992158;28;20165;-49
2022/07/13 06:28:38;;;;;;;5.75;5.25;;;;;;;20.42;85.12;101584.22;4992329;28;20196;-48
2022/07/13 06:31:04;;;;;;;7.72;4.80;;;;;;;20.55;84.45;101579.72;4991669;28;20181;-49
2022/07/13 06:33:29;;;;;;;5.20;4.70;;;;;;;20.55;84.18;101566.09;4991974;28;20236;-46
2022/07/13 06:35:55;;;;;;;8.48;4.80;;;;;;;20.71;83.43;101567.78;4992004;28;20228;-46
2022/07/13 06:38:20;;;;;;;5.60;4.90;;;;;;;20.82;82.63;101559.75;4992160;28;20279;-50
2022/07/13 06:40:47;;;;;;;5.75;4.13;;;;;;;20.85;82.08;101554.06;4992370;28;20169;-47
2022/07/13 06:43:13;;;;;;;4.55;4.15;;;;;;;20.80;81.16;101552.66;4991818;28;20184;-51
2022/07/13 06:45:39;;;;;;;7.07;3.85;;;;;;;20.82;81.27;101553.44;4991932;28;20248;-49
2022/07/13 06:48:05;;;;;;;4.30;4.00;;;;;;;20.85;81.14;101554.06;4991931;28;20340;-48
2022/07/13 06:50:30;;;;;;;7.13;4.10;;;;;;;20.75;81.76;101539.34;4991589;28;20181;-48
2022/07/13 06:52:56;;;;;;;5.88;3.63;;;;;;;20.87;81.10;101537.63;4991996;28;20656;-49
2022/07/13 06:55:21;;;;;;;5.03;3.40;;;;;;;21.08;80.86;101548.84;4991626;28;20260;-49
2022/07/13 06:57:47;;;;;;;4.40;3.72;;;;;;;21.30;80.67;101546.34;4992000;28;20191;-48
2022/07/13 07:00:13;;;;;;;4.97;4.57;;;;;;;21.33;79.24;101542.50;4991902;28;20887;-48
2022/07/13 07:02:39;;;;;;;4.45;4.03;;;;;;;21.40;79.14;101541.94;4991715;28;20161;-48
2022/07/13 07:05:09;;;;;;;4.03;3.72;;;;;;;21.43;79.95;101540.00;4991509;28;20197;-47
2022/07/13 07:07:35;;;;;;;4.70;4.00;;;;;;;21.44;80.82;101537.19;4991118;28;20165;-49
2022/07/13 07:10:01;;;;;;;5.68;4.47;;;;;;;21.37;79.44;101541.31;4991305;28;20231;-47
2022/07/13 07:12:26;;;;;;;4.63;4.20;;;;;;;21.39;79.20;101534.75;4990963;28;20652;-47
2022/07/13 07:14:52;;;;;;;4.82;4.15;;;;;;;21.47;78.04;101538.81;4990922;28;20212;-52
2022/07/13 07:17:17;;;;;;;3.85;3.50;;;;;;;21.44;78.50;101542.63;4991189;28;20203;-46
2022/07/13 07:19:44;;;;;;;3.53;3.22;;;;;;;21.51;78.88;101534.88;4991483;28;20211;-46
2022/07/13 07:22:11;;;;;;;3.47;3.25;;;;;;;21.47;79.37;101544.25;4991539;28;20188;-46
2022/07/13 07:24:37;;;;;;;5.53;3.97;;;;;;;21.44;77.94;101541.78;4990694;28;20559;-48
2022/07/13 07:27:05;;;;;;;3.50;3.30;;;;;;;21.29;78.82;101541.84;4991103;28;20181;-46
2022/07/13 07:29:31;;;;;;;4.70;3.17;;;;;;;21.28;79.57;101542.84;4991090;28;20684;-47
2022/07/13 07:31:56;;;;;;;4.22;3.55;;;;;;;21.25;80.85;101550.38;4991044;28;20227;-48
2022/07/13 07:34:22;;;;;;;4.00;3.65;;;;;;;21.07;80.43;101542.53;5006075;28;20172;-46
2022/07/13 07:36:47;;;;;;;5.32;3.33;;;;;;;21.19;80.48;101543.53;4999545;28;20184;-48
2022/07/13 07:39:13;;;;;;;5.05;3.30;;;;;;;21.20;82.12;101531.63;4995904;28;20657;-51
2022/07/13 07:41:39;;;;;;;5.38;3.92;;;;;;;20.99;81.88;101543.09;4990414;28;20263;-48
2022/07/13 07:44:05;;;;;;;3.90;3.58;;;;;;;21.15;81.05;101537.41;4990452;28;20176;-51
2022/07/13 07:46:30;;;;;;;4.10;3.80;;;;;;;21.18;80.90;101539.03;4990495;28;20545;-48
2022/07/13 07:48:56;;;;;;;4.80;4.13;;;;;;;21.11;80.92;101543.19;4990539;28;20672;-47
2022/07/13 07:51:22;;;;;;;6.70;4.40;;;;;;;21.01;80.40;101534.78;4990663;28;20714;-49
2022/07/13 07:53:47;;;;;;;4.10;3.55;;;;;;;20.96;83.07;101537.84;4990154;28;20169;-47
2022/07/13 07:56:12;;;;;;;5.63;4.00;;;;;;;20.80;83.13;101529.00;4990669;28;20169;-47
2022/07/13 07:58:38;;;;;;;4.93;4.53;;;;;;;20.78;83.20;101537.28;4973006;28;20200;-47
2022/07/13 08:01:04;;;;;;;6.30;4.53;;;;;;;20.89;82.28;101530.22;4990406;28;20180;-48
2022/07/13 08:03:29;;;;;;;5.90;4.95;;;;;;;20.99;81.75;101528.59;4990334;28;20201;-48
2022/07/13 08:05:57;;;;;;;5.20;4.72;;;;;;;20.92;81.95;101530.00;4990390;28;20180;-49
2022/07/13 08:08:23;;;;;;;4.90;4.50;;;;;;;20.80;83.12;101523.56;4991209;28;20201;-48
2022/07/13 08:10:48;;;;;;;6.63;4.57;;;;;;;20.90;83.68;101515.59;4990707;28;20577;-51
2022/07/13 08:13:14;;;;;;;4.88;4.10;;;;;;;21.10;82.73;101512.34;4990196;28;20181;-50
2022/07/13 08:15:39;;;;;;;4.88;4.32;;;;;;;20.98;83.01;101521.38;4990816;28;20200;-47
2022/07/13 08:18:05;;;;;;;6.85;5.00;;;;;;;20.93;82.25;101519.00;4990231;28;20248;-47
2022/07/13 08:20:30;;;;;;;8.57;5.18;;;;;;;20.80;81.92;101515.41;4990691;28;20220;-50
2022/07/13 08:22:56;;;;;;;5.60;3.92;;;;;;;20.96;82.64;101504.28;4990000;28;20637;-49
2022/07/13 08:25:21;;;;;;;5.00;4.25;;;;;;;21.02;81.92;101512.00;4990137;28;20194;-48
2022/07/13 08:27:47;;;;;;;5.40;4.40;;;;;;;20.96;81.25;101504.28;4991241;28;20172;-50
2022/07/13 08:30:13;;;;;;;3.83;3.40;;;;;;;21.15;82.42;101514.75;4990645;28;20172;-48
2022/07/13 08:32:41;;;;;;;7.20;4.38;;;;;;;20.96;82.54;101513.31;4991049;28;20169;-48
2022/07/13 08:40:41;;;;;;;5.55;3.85;;;;;;;21.23;81.75;101487.81;4990163;28;20796;-48
2022/07/13 08:43:06;;;;;;;4.88;3.78;;;;;;;21.38;81.15;101478.50;4990270;28;20233;-46
2022/07/13 08:45:33;;;;;;;6.40;4.40;;;;;;;21.49;80.67;101485.03;4990212;28;20173;-49
2022/07/13 08:48:00;;;;;;;4.90;4.30;;;;;;;21.56;80.35;101489.06;4990100;28;20169;-48
2022/07/13 08:50:27;;;;;;;5.90;4.80;;;;;;;21.46;80.17;101505.22;4990307;28;20217;-50
2022/07/13 08:52:53;;;;;;;6.30;4.70;;;;;;;21.47;79.94;101506.97;4989897;28;20177;-52
2022/07/13 08:55:20;;;;;;;6.60;4.40;;;;;;;21.68;78.67;101499.06;4988759;28;20191;-48
2022/07/13 08:57:45;;;;;;;5.53;4.72;;;;;;;21.69;78.98;101486.28;4990241;28;20169;-48
2022/07/13 09:00:12;;;;;;;4.97;4.47;;;;;;;21.65;78.41;101488.38;4972693;28;20758;-47
2022/07/13 09:02:38;;;;;;;3.97;3.58;;;;;;;21.92;79.50;101490.88;4990007;28;20224;-48
2022/07/13 09:05:07;;;;;;;3.83;3.20;;;;;;;22.19;77.52;101485.19;4989628;28;20258;-47
2022/07/13 09:07:34;;;;;;;5.43;3.60;;;;;;;22.18;77.67;101490.75;4990342;28;20244;-51
2022/07/13 09:10:02;;;;;;;6.13;3.50;;;;;;;22.63;76.60;101488.22;4989736;28;20212;-48
2022/07/13 09:12:28;;;;;;;5.40;4.75;;;;;;;22.70;74.35;101480.41;4973178;28;20263;-48
2022/07/13 09:14:56;;;;;;;5.13;4.75;;;;;;;22.91;73.16;101481.41;4993837;28;20232;-47
2022/07/13 09:17:42;;;;;;;5.78;4.15;;;;;;;23.57;73.05;101480.66;4993248;28;20211;-45
2022/07/13 09:20:10;;;;;;;4.63;4.10;;;;;;;23.91;72.51;101486.97;4976930;28;20185;-47
2022/07/13 09:22:56;;;;;;;6.30;4.40;;;;;;;23.82;71.13;101471.31;4993909;28;20177;-44
2022/07/13 09:25:25;;;;;;;5.18;3.83;;;;;;;24.11;70.73;101476.19;4992542;28;20252;-47
2022/07/13 09:27:50;;;;;;;9.85;5.20;;;;;;;23.83;69.85;101476.66;4975062;28;20185;-47
2022/07/13 09:30:27;;;;;;;3.92;3.60;;;;;;;24.46;68.97;101479.47;4993495;28;20165;-46
2022/07/13 09:32:55;;;;;;;5.20;4.60;;;;;;;24.62;67.88;101468.09;4993400;28;20283;-46
2022/07/13 09:35:40;;;;;;;8.50;4.60;;;;;;;25.16;66.29;101456.97;4993566;28;20617;-47
2022/07/13 09:38:05;;;;;;;5.18;4.68;;;;;;;24.57;65.77;101458.53;4993003;28;20692;-46
2022/07/13 09:40:31;;;;;;;7.75;4.15;;;;;;;24.76;65.51;101463.28;4993084;28;20428;-47
2022/07/13 09:48:25;;;;;;;3.67;3.38;;;;;;;25.28;63.50;101455.91;4993285;28;20215;-48
2022/07/13 09:50:53;;;;;;;6.38;4.00;;;;;;;25.36;62.58;101444.22;4992536;28;20184;-47
2022/07/13 09:53:28;;;;;;;3.88;3.22;;;;;;;25.59;62.22;101437.50;4975345;28;20173;-46
2022/07/13 09:55:55;;;;;;;4.95;3.83;;;;;;;25.73;61.98;101440.84;4992828;28;20509;-47
2022/07/13 09:58:48;;;;;;;5.10;3.90;;;;;;;25.88;61.13;101434.81;4992350;28;20232;-47
2022/07/13 10:01:14;;;;;;;3.72;2.88;;;;;;;26.17;61.38;101436.69;4990267;28;20578;-46
2022/07/13 10:03:40;;;;;;;4.00;3.22;;;;;;;25.72;59.33;101444.59;4992604;28;20169;-46
2022/07/13 10:06:06;;;;;;;5.63;3.00;;;;;;;25.89;60.24;101438.44;4992833;28;20251;-47
2022/07/13 10:08:32;;;;;;;3.90;3.38;;;;;;;25.99;60.10;101441.19;4975347;28;20244;-46
2022/07/13 10:10:59;;;;;;;3.58;3.28;;;;;;;26.06;59.57;101447.81;4975429;28;20639;-47
2022/07/13 10:13:24;;;;;;;5.43;3.15;;;;;;;26.22;59.80;101436.25;4992582;28;20621;-46
2022/07/13 10:15:50;;;;;;;4.88;2.55;;;;;;;26.34;58.58;101434.22;4974947;28;20165;-48
2022/07/13 10:18:27;;;;;;;4.53;3.20;;;;;;;26.30;58.76;101429.03;4992421;28;20208;-45
2022/07/13 10:21:08;;;;;;;3.53;2.90;;;;;;;26.68;58.55;101409.88;4992427;28;20191;-47
2022/07/13 10:23:37;;;;;;;4.30;3.35;;;;;;;25.75;59.44;101425.09;4991811;28;20173;-46
2022/07/13 10:26:03;;;;;;;6.07;3.53;;;;;;;25.38;59.75;101418.38;4991888;28;20168;-45
2022/07/13 10:28:28;;;;;;;2.92;2.70;;;;;;;25.90;60.54;101424.53;4992130;28;20193;-46
2022/07/13 10:30:54;;;;;;;2.60;2.40;;;;;;;26.45;58.63;101410.16;4974896;28;20218;-46
2022/07/13 10:33:22;;;;;;;2.88;2.50;;;;;;;26.31;58.38;101408.75;4991841;28;20169;-43
2022/07/13 10:35:50;;;;;;;3.78;1.98;;;;;;;26.66;58.62;101399.03;4992412;28;20629;-45
2022/07/13 10:38:22;;;;;;;5.13;2.75;;;;;;;26.91;56.33;101404.84;4992171;28;20228;-44
2022/07/13 10:40:49;;;;;;;2.88;2.17;;;;;;;26.66;58.64;101398.16;4991782;28;20212;-43
2022/07/13 10:43:16;;;;;;;3.22;2.90;;;;;;;26.89;56.50;101404.13;4991787;28;20176;-43
2022/07/13 10:45:52;;;;;;;4.80;2.83;;;;;;;26.52;56.92;101416.84;4991493;28;20173;-44
2022/07/13 10:48:26;;;;;;;5.22;2.40;;;;;;;26.14;58.11;101398.53;4991985;28;20196;-43
2022/07/13 10:50:57;;;;;;;3.47;2.60;;;;;;;26.68;57.53;101401.63;4991932;28;20176;-46
2022/07/13 10:53:38;;;;;;;3.38;3.00;;;;;;;26.34;57.66;101406.75;4991804;28;20174;-46
2022/07/13 10:56:03;;;;;;;2.85;2.50;;;;;;;26.43;57.85;101408.59;4991986;28;20264;-46
2022/07/13 10:58:35;;;;;;;3.80;2.65;;;;;;;25.81;56.99;101427.28;4991351;28;20385;-46
2022/07/13 11:01:22;;;;;;;6.65;2.83;;;;;;;25.26;57.14;101416.78;4991936;28;20173;-46
2022/07/13 11:03:48;;;;;;;2.92;2.38;;;;;;;26.39;57.31;101416.28;4991073;28;20187;-44
2022/07/13 11:06:21;;;;;;;5.38;2.63;;;;;;;26.12;58.23;101406.03;4991720;28;20165;-47
2022/07/13 11:09:06;;;;;;;7.60;2.75;;;;;;;26.31;58.07;101410.66;4991731;28;20352;-47
2022/07/13 11:11:32;;;;;;;5.10;2.95;;;;;;;25.50;59.58;101419.13;4991010;28;20188;-47
2022/07/13 11:13:58;;;;;;;2.70;2.50;;;;;;;25.93;58.47;101412.41;4991489;28;20199;-48
2022/07/13 11:16:42;;;;;;;5.43;2.10;;;;;;;26.23;57.97;101411.38;4991129;28;20259;-51
2022/07/13 11:19:08;;;;;;;3.03;2.20;;;;;;;26.04;56.86;101416.88;4991271;28;20216;-51
2022/07/13 11:22:08;;;;;;;3.22;2.08;;;;;;;26.30;57.99;101422.63;4991398;28;20165;-47
2022/07/13 11:27:42;;;;;;;4.75;2.50;;;;;;;26.02;58.03;101418.91;4991194;28;20271;-48
2022/07/13 11:30:13;;;;;;;4.90;1.98;;;;;;;25.78;58.55;101405.56;4991490;28;20699;-47
2022/07/13 11:32:39;;;;;;;2.13;1.92;;;;;;;25.60;57.61;101413.66;4991692;28;20183;-49
2022/07/13 11:35:05;;;;;;;2.28;1.83;;;;;;;25.51;59.29;101409.03;4973028;28;20223;-48
2022/07/13 11:37:31;;;;;;;1.95;1.73;;;;;;;26.04;57.85;101422.38;4991553;28;20173;-46